Amenia, NY (12501)

7:58 AM EDT en Octubre 24, 2014 (GMT -0400)
South Ellsworth | Change Station
CLOSE
Current Station
Estación meteorológica personal
Location: Sharon, CT
Altura: 1155 ft
Estaciones meteorológicas cercanas

Alt 1155 ft 41.80 °N, 73.43 °W | Updated 35 seconds ago

Lluvia
Lluvia
43.8 ° F
Sensación térmica 44 ° F
N
1.0
Viento Variable Viento desde ENE
Gusts 8.0 mph

Hoy
Alta -- | Baja -- ° F
--% Posibilidad de precipitaciones
Ayer
Alta -- | Baja -- ° F
Precip. -- pul
7:16 AM 5:59 PM
Luna nueva, 0% visible
Presión 29.81 pul
Visibilidad 10.0 Millas
Nubes Muy nublado 2100 ft
Nublado 2900 ft
Vientos helados 44 ° F
Punto de rocío 44 ° F
Humedad 99%
Precipitaciones 0.04 pul
Espesor de la nieve No disponible.
UV 0 de una escala de 12
Polen .10 de una escala de 12
PM2.5 Buena
Flu Activity Sporadic
METAR KPOU 241153Z 00000KT 10SM BKN021 OVC029 09/07 A2982 RMK AO2 SLP095 60000 70030 T00940067 10106 20094 53011

More Conditions Fewer Conditions

Presión 29.81 pul
Visibilidad 10.0 Millas
Nubes Muy nublado 2100 ft
Nublado 2900 ft
Vientos helados 44 ° F
Punto de rocío 44 ° F
Humedad 99%
Precipitaciones 0.04 pul
Espesor de la nieve No disponible.
UV 0 de una escala de 12
Polen .10 de una escala de 12
PM2.5 Buena
Flu Activity Sporadic
METAR KPOU 241153Z 00000KT 10SM BKN021 OVC029 09/07 A2982 RMK AO2 SLP095 60000 70030 T00940067 10106 20094 53011

More Conditions Fewer Conditions

10-Day Weather Forecast

Almanac

Astronomía

Oct. 24, 2014 Salida Puesta
Hora real 7:16 AM EDT 5:59 PM EDT
Crepúsculo civil 6:48 AM EDT 6:27 PM EDT
Crepúsculo náutico 6:15 AM EDT 7:00 PM EDT
Crepúsculo astronómico 5:43 AM EDT 7:32 PM EDT
Luna 7:53 AM EDT 6:36 PM EDT
Horas de luz 11h 39m
Horas de luz
10h 42m
Tomorrow will be 2m 37s shorter.
Luna nueva, 0% of the Moon is Illuminated
Hoy
Luna nueva
Oct 30
Cuarto creciente
Nov 6
Luna llena
Nov 14
Cuarto menguante
Nov 22
Nueva

Extremos de hoy

Máximos del estado Bajos del estado

Community

WunderPhotos

Upload Photos

1,764,526 ¡fotos cargadas!

Nearby

Calidad del aire

  Calidad del aire Índice AQ Contaminante
Ayer Buena
OZONE
Ayer Buena
PM2.5
Real Buena
PM2.5
Viernes Buena
PM2.5

Grosos de nieve

Estación Profundido Altura
No tenemos constancia de nieve nueva.

Actividad de terremotos

Ciudad Distance Mag. Tiempo y dato
No hay informes recientes de la actividad sísmica.
Magnitud mínima muestra es 2,5.

Temperaturas de aguas costeras

Lugar Temperatura
Sin partes meteorológicos de las estaciones

Estaciones meteorológicas cercanas